OSI weather

Osijek Airport
Osijek, Osijek-Baranja County, Croatia

Public forecast

Using degrees Celsius for public forecast. Weather courtesy of forecast.io.

METAR (pilot weather report)

Retrieved 2019/06/16 19:30 UTC (0 seconds ago):

LDOS 161930Z 32008KT CAVOK 23/18 Q1013

TAF (pilot weather forecast)

Retrieved 2019/06/16 18:27 UTC (35 minutes ago):

TAF LDOS 161725Z 1618/1718 35010KT CAVOK TX27/1714Z TN17/1623Z TEMPO 1618/1702 21020G30KT 2000 +TSRA SCT020CB BKN040 BECMG 1700/1702 35006KT PROB30 TEMPO 1709/1718 TSRA FEW030CB BKN035